Time,TemperatureF,DewpointF,PressureIn,WindDirection,WindDirectionDegrees,WindSpeedMPH,WindSpeedGustMPH,Humidity,HourlyPrecipIn,Conditions,Clouds,dailyrainin,SoftwareType,DateUTC
2013-09-18 00:02:00,54.1,43.0,29.71,West,276,1.0,3.0,66,0.00,,,0.00,meteohub,2013-09-18 06:02:00,
2013-09-18 00:07:00,54.1,43.3,29.71,WSW,250,2.0,3.0,67,0.00,,,0.00,meteohub,2013-09-18 06:07:00,
2013-09-18 00:12:00,54.3,43.5,29.71,WNW,297,1.0,3.0,67,0.00,,,0.00,meteohub,2013-09-18 06:12:00,
2013-09-18 00:17:00,54.0,43.3,29.71,WNW,287,3.0,3.0,67,0.00,,,0.00,meteohub,2013-09-18 06:17:00,
2013-09-18 00:22:00,54.0,43.7,29.70,WNW,284,0.0,3.0,68,0.00,,,0.00,meteohub,2013-09-18 06:22:00,
2013-09-18 00:27:00,54.1,43.3,29.70,WNW,285,1.0,3.0,67,0.00,,,0.00,meteohub,2013-09-18 06:27:00,
2013-09-18 00:32:00,54.1,43.9,29.70,West,278,0.0,3.0,68,0.00,,,0.00,meteohub,2013-09-18 06:32:00,
2013-09-18 00:37:00,54.3,43.5,29.70,South,177,1.0,2.0,67,0.00,,,0.00,meteohub,2013-09-18 06:37:00,
2013-09-18 00:42:00,54.7,43.9,29.70,SE,142,2.0,2.0,67,0.00,,,0.00,meteohub,2013-09-18 06:42:00,
2013-09-18 00:47:00,55.0,43.9,29.70,SE,139,2.0,3.0,66,0.00,,,0.00,meteohub,2013-09-18 06:47:00,
2013-09-18 00:52:00,55.4,43.9,29.70,SE,133,2.0,3.0,65,0.00,,,0.00,meteohub,2013-09-18 06:52:00,
2013-09-18 00:57:00,55.2,43.7,29.70,SSE,158,1.0,4.0,65,0.00,,,0.00,meteohub,2013-09-18 06:57:00,
2013-09-18 01:02:00,55.0,43.9,29.70,SE,139,3.0,4.0,66,0.00,,,0.00,meteohub,2013-09-18 07:02:00,
2013-09-18 01:07:00,55.2,43.7,29.70,SE,146,3.0,3.0,65,0.00,,,0.00,meteohub,2013-09-18 07:07:00,
2013-09-18 01:12:00,55.4,43.9,29.70,SE,142,4.0,5.0,65,0.00,,,0.00,meteohub,2013-09-18 07:12:00,
2013-09-18 01:17:00,55.2,43.7,29.70,SE,133,3.0,5.0,65,0.00,,,0.00,meteohub,2013-09-18 07:17:00,
2013-09-18 01:22:00,54.7,43.5,29.70,SE,135,2.0,6.0,66,0.00,,,0.00,meteohub,2013-09-18 07:22:00,
2013-09-18 01:27:00,54.0,44.1,29.70,ESE,113,0.0,6.0,69,0.00,,,0.00,meteohub,2013-09-18 07:27:00,
2013-09-18 01:32:00,53.6,44.1,29.70,ESE,113,0.0,5.0,70,0.00,,,0.00,meteohub,2013-09-18 07:32:00,
2013-09-18 01:37:00,52.9,43.3,29.70,NNW,330,2.0,4.0,70,0.00,,,0.00,meteohub,2013-09-18 07:37:00,
2013-09-18 01:42:00,51.8,43.0,29.70,NNW,336,1.0,3.0,72,0.00,,,0.00,meteohub,2013-09-18 07:42:00,
2013-09-18 01:47:00,51.3,43.0,29.70,NW,304,0.0,3.0,73,0.00,,,0.00,meteohub,2013-09-18 07:47:00,
2013-09-18 01:52:00,51.6,43.3,29.70,ENE,72,0.0,3.0,73,0.00,,,0.00,meteohub,2013-09-18 07:52:00,
2013-09-18 01:57:00,52.5,43.7,29.70,ESE,113,2.0,2.0,72,0.00,,,0.00,meteohub,2013-09-18 07:57:00,
2013-09-18 02:02:00,53.2,43.7,29.70,ESE,103,2.0,3.0,70,0.00,,,0.00,meteohub,2013-09-18 08:02:00,
2013-09-18 02:07:00,53.2,43.7,29.69,ESE,115,1.0,3.0,70,0.00,,,0.00,meteohub,2013-09-18 08:07:00,
2013-09-18 02:12:00,53.2,43.7,29.69,ESE,104,3.0,3.0,70,0.00,,,0.00,meteohub,2013-09-18 08:12:00,
2013-09-18 02:17:00,53.2,43.7,29.69,SE,129,1.0,4.0,70,0.00,,,0.00,meteohub,2013-09-18 08:17:00,
2013-09-18 02:22:00,52.9,43.7,29.69,ESE,102,3.0,4.0,71,0.00,,,0.00,meteohub,2013-09-18 08:22:00,
2013-09-18 02:27:00,52.7,43.9,29.69,SE,134,1.0,4.0,72,0.00,,,0.00,meteohub,2013-09-18 08:27:00,
2013-09-18 02:32:00,52.5,43.7,29.69,ESE,110,0.0,4.0,72,0.00,,,0.00,meteohub,2013-09-18 08:32:00,
2013-09-18 02:37:00,52.2,43.7,29.69,ESE,108,3.0,4.0,73,0.00,,,0.00,meteohub,2013-09-18 08:37:00,
2013-09-18 02:42:00,52.2,43.7,29.69,SE,134,0.0,3.0,73,0.00,,,0.00,meteohub,2013-09-18 08:42:00,
2013-09-18 02:47:00,52.2,43.7,29.69,SE,141,3.0,4.0,73,0.00,,,0.00,meteohub,2013-09-18 08:47:00,
2013-09-18 02:52:00,52.2,43.7,29.69,SE,145,0.0,4.0,73,0.00,,,0.00,meteohub,2013-09-18 08:52:00,
2013-09-18 02:57:00,52.2,43.7,29.69,SSE,160,0.0,6.0,73,0.00,,,0.00,meteohub,2013-09-18 08:57:00,
2013-09-18 03:02:00,52.2,44.1,29.69,SSE,150,0.0,6.0,74,0.00,,,0.00,meteohub,2013-09-18 09:02:00,
2013-09-18 03:07:00,52.0,43.5,29.69,WNW,297,1.0,6.0,73,0.00,,,0.00,meteohub,2013-09-18 09:07:00,
2013-09-18 03:12:00,50.9,43.0,29.69,NNW,336,1.0,3.0,74,0.00,,,0.00,meteohub,2013-09-18 09:12:00,
2013-09-18 03:17:00,50.4,43.2,29.69,West,263,1.0,3.0,76,0.00,,,0.00,meteohub,2013-09-18 09:17:00,
2013-09-18 03:22:00,50.4,43.7,29.68,SW,215,0.0,3.0,78,0.00,,,0.00,meteohub,2013-09-18 09:22:00,
2013-09-18 03:27:00,51.1,44.1,29.68,SSW,203,4.0,4.0,77,0.00,,,0.00,meteohub,2013-09-18 09:27:00,
2013-09-18 03:32:00,51.8,44.4,29.68,South,190,4.0,5.0,76,0.00,,,0.00,meteohub,2013-09-18 09:32:00,
2013-09-18 03:37:00,51.8,44.1,29.68,SSE,165,3.0,5.0,75,0.00,,,0.00,meteohub,2013-09-18 09:37:00,
2013-09-18 03:42:00,51.8,44.8,29.68,SW,236,3.0,7.0,77,0.00,,,0.00,meteohub,2013-09-18 09:42:00,
2013-09-18 03:47:00,51.3,43.5,29.68,NNW,333,4.0,7.0,75,0.00,,,0.00,meteohub,2013-09-18 09:47:00,
2013-09-18 03:52:00,49.6,42.8,29.69,NW,316,3.0,7.0,77,0.00,,,0.00,meteohub,2013-09-18 09:52:00,
2013-09-18 03:57:00,48.6,42.3,29.70,NNW,344,9.0,9.0,79,0.00,,,0.00,meteohub,2013-09-18 09:57:00,
2013-09-18 04:02:00,48.4,42.3,29.70,NW,313,7.0,14.0,79,0.00,,,0.00,meteohub,2013-09-18 10:02:00,
2013-09-18 04:07:00,48.4,42.3,29.69,NNW,337,4.0,14.0,79,0.00,,,0.00,meteohub,2013-09-18 10:07:00,
2013-09-18 04:12:00,48.4,42.3,29.69,North,6,4.0,14.0,79,0.00,,,0.00,meteohub,2013-09-18 10:12:00,
2013-09-18 04:17:00,48.4,42.3,29.69,NW,323,4.0,11.0,79,0.00,,,0.00,meteohub,2013-09-18 10:17:00,
2013-09-18 04:22:00,48.0,42.1,29.69,NNW,328,4.0,9.0,80,0.00,,,0.00,meteohub,2013-09-18 10:22:00,
2013-09-18 04:27:00,47.8,42.3,29.68,West,272,1.0,9.0,81,0.00,,,0.00,meteohub,2013-09-18 10:27:00,
2013-09-18 04:32:00,48.6,42.6,29.68,West,277,0.0,9.0,80,0.00,,,0.00,meteohub,2013-09-18 10:32:00,
2013-09-18 04:37:00,49.1,42.8,29.69,NNW,338,2.0,8.0,79,0.00,,,0.00,meteohub,2013-09-18 10:37:00,
2013-09-18 04:42:00,49.8,43.0,29.69,West,280,3.0,3.0,77,0.00,,,0.00,meteohub,2013-09-18 10:42:00,
2013-09-18 04:47:00,49.6,42.8,29.69,West,277,3.0,5.0,77,0.00,,,0.00,meteohub,2013-09-18 10:47:00,
2013-09-18 04:52:00,50.5,43.5,29.69,SE,127,0.0,5.0,77,0.00,,,0.00,meteohub,2013-09-18 10:52:00,
2013-09-18 04:57:00,50.4,43.3,29.69,WSW,243,2.0,5.0,77,0.00,,,0.00,meteohub,2013-09-18 10:57:00,
2013-09-18 05:02:00,50.5,43.3,29.69,SSE,155,2.0,3.0,76,0.00,,,0.00,meteohub,2013-09-18 11:02:00,
2013-09-18 05:07:00,50.5,43.5,29.69,SW,217,2.0,3.0,77,0.00,,,0.00,meteohub,2013-09-18 11:07:00,
2013-09-18 05:12:00,50.7,43.7,29.69,SW,214,1.0,4.0,77,0.00,,,0.00,meteohub,2013-09-18 11:12:00,
2013-09-18 05:17:00,50.5,43.5,29.69,SSW,211,2.0,4.0,77,0.00,,,0.00,meteohub,2013-09-18 11:17:00,
2013-09-18 05:22:00,50.7,43.7,29.69,West,276,2.0,4.0,77,0.00,,,0.00,meteohub,2013-09-18 11:22:00,
2013-09-18 05:27:00,50.9,43.9,29.70,WNW,287,2.0,3.0,77,0.00,,,0.00,meteohub,2013-09-18 11:27:00,
2013-09-18 05:32:00,50.9,43.5,29.70,WNW,302,2.0,4.0,76,0.00,,,0.00,meteohub,2013-09-18 11:32:00,
2013-09-18 05:37:00,51.3,44.2,29.70,NW,305,1.0,4.0,77,0.00,,,0.00,meteohub,2013-09-18 11:37:00,
2013-09-18 05:42:00,52.0,44.6,29.71,West,278,1.0,3.0,76,0.00,,,0.00,meteohub,2013-09-18 11:42:00,
2013-09-18 05:47:00,51.1,43.7,29.72,NW,318,3.0,4.0,76,0.00,,,0.00,meteohub,2013-09-18 11:47:00,
2013-09-18 05:52:00,50.9,43.9,29.72,NE,51,0.0,5.0,77,0.00,,,0.00,meteohub,2013-09-18 11:52:00,
2013-09-18 05:57:00,50.5,43.9,29.72,NNW,329,2.0,5.0,78,0.00,,,0.00,meteohub,2013-09-18 11:57:00,
2013-09-18 06:02:00,50.5,43.9,29.72,North,358,1.0,5.0,78,0.00,,,0.00,meteohub,2013-09-18 12:02:00,
2013-09-18 06:07:00,50.4,44.4,29.73,NW,304,1.0,2.0,80,0.00,,,0.00,meteohub,2013-09-18 12:07:00,
2013-09-18 06:12:00,49.8,44.2,29.73,NW,312,0.0,4.0,81,0.00,,,0.00,meteohub,2013-09-18 12:12:00,
2013-09-18 06:17:00,49.6,44.4,29.73,NE,49,0.0,4.0,82,0.00,,,0.00,meteohub,2013-09-18 12:17:00,
2013-09-18 06:22:00,49.5,44.6,29.72,ESE,120,0.0,4.0,83,0.01,,,0.01,meteohub,2013-09-18 12:22:00,
2013-09-18 06:27:00,49.8,45.5,29.72,SE,142,3.0,3.0,85,0.02,,,0.02,meteohub,2013-09-18 12:27:00,
2013-09-18 06:32:00,49.5,45.5,29.71,South,174,1.0,5.0,86,0.02,,,0.02,meteohub,2013-09-18 12:32:00,
2013-09-18 06:37:00,49.3,45.5,29.71,SW,236,3.0,5.0,87,0.02,,,0.02,meteohub,2013-09-18 12:37:00,
2013-09-18 06:43:00,49.3,45.5,29.72,WSW,239,3.0,5.0,87,0.02,,,0.02,meteohub,2013-09-18 12:43:00,
2013-09-18 06:48:00,49.3,45.9,29.72,West,270,3.0,5.0,88,0.02,,,0.02,meteohub,2013-09-18 12:48:00,
2013-09-18 06:53:00,48.7,45.9,29.73,West,274,3.0,5.0,90,0.02,,,0.02,meteohub,2013-09-18 12:53:00,
2013-09-18 06:58:00,48.6,45.7,29.73,NW,314,2.0,4.0,90,0.02,,,0.02,meteohub,2013-09-18 12:58:00,
2013-09-18 07:03:00,48.9,46.0,29.73,NNW,333,3.0,5.0,90,0.02,,,0.02,meteohub,2013-09-18 13:03:00,
2013-09-18 07:08:00,49.6,46.2,29.72,ENE,72,2.0,6.0,88,0.02,,,0.02,meteohub,2013-09-18 13:08:00,
2013-09-18 07:13:00,50.7,46.8,29.72,East,79,3.0,6.0,86,0.03,,,0.03,meteohub,2013-09-18 13:13:00,
2013-09-18 07:18:00,51.6,46.6,29.72,East,98,4.0,6.0,83,0.03,,,0.03,meteohub,2013-09-18 13:18:00,
2013-09-18 07:23:00,51.6,46.6,29.72,East,95,3.0,5.0,83,0.02,,,0.03,meteohub,2013-09-18 13:23:00,
2013-09-18 07:28:00,51.1,47.1,29.72,NE,49,0.0,6.0,86,0.01,,,0.03,meteohub,2013-09-18 13:28:00,
2013-09-18 07:34:00,51.3,47.3,29.72,SE,134,0.0,6.0,86,0.01,,,0.03,meteohub,2013-09-18 13:34:00,
2013-09-18 07:39:00,52.0,47.8,29.72,SSE,167,0.0,6.0,86,0.01,,,0.03,meteohub,2013-09-18 13:39:00,
2013-09-18 07:44:00,52.9,48.6,29.73,South,169,0.0,6.0,85,0.01,,,0.03,meteohub,2013-09-18 13:44:00,
2013-09-18 07:49:00,52.3,48.2,29.73,NW,326,2.0,4.0,86,0.01,,,0.03,meteohub,2013-09-18 13:49:00,
2013-09-18 07:54:00,52.3,48.2,29.73,SW,232,1.0,2.0,86,0.01,,,0.03,meteohub,2013-09-18 13:54:00,
2013-09-18 08:00:00,52.9,48.2,29.72,SSE,157,2.0,2.0,84,0.01,,,0.03,meteohub,2013-09-18 14:00:00,
2013-09-18 08:05:00,53.6,48.6,29.72,SSE,158,3.0,5.0,83,0.01,,,0.03,meteohub,2013-09-18 14:05:00,
2013-09-18 08:10:00,53.2,47.5,29.72,SSE,159,3.0,5.0,81,0.01,,,0.03,meteohub,2013-09-18 14:10:00,
2013-09-18 08:15:00,52.9,47.3,29.72,SSE,156,3.0,6.0,81,0.00,,,0.03,meteohub,2013-09-18 14:15:00,
2013-09-18 08:21:00,52.5,47.1,29.73,SW,231,0.0,6.0,82,0.00,,,0.03,meteohub,2013-09-18 14:21:00,
2013-09-18 08:27:00,52.5,47.8,29.73,SW,228,0.0,5.0,84,0.00,,,0.03,meteohub,2013-09-18 14:27:00,
2013-09-18 08:32:00,52.5,47.8,29.73,SW,228,1.0,3.0,84,0.00,,,0.03,meteohub,2013-09-18 14:32:00,
2013-09-18 08:37:00,52.2,48.0,29.73,SE,129,0.0,1.0,86,0.00,,,0.03,meteohub,2013-09-18 14:37:00,
2013-09-18 08:42:00,52.0,47.8,29.73,SE,134,0.0,3.0,86,0.00,,,0.03,meteohub,2013-09-18 14:42:00,
2013-09-18 08:47:00,51.6,47.8,29.73,SE,135,4.0,4.0,87,0.00,,,0.03,meteohub,2013-09-18 14:47:00,
2013-09-18 08:53:00,51.4,47.7,29.73,SE,144,1.0,5.0,87,0.00,,,0.03,meteohub,2013-09-18 14:53:00,
2013-09-18 08:58:00,51.4,47.5,29.73,SE,134,4.0,5.0,86,0.00,,,0.03,meteohub,2013-09-18 14:58:00,
2013-09-18 09:03:00,51.4,47.7,29.72,ESE,105,2.0,6.0,87,0.00,,,0.03,meteohub,2013-09-18 15:03:00,
2013-09-18 09:08:00,51.4,47.5,29.73,South,179,4.0,6.0,86,0.00,,,0.03,meteohub,2013-09-18 15:08:00,
2013-09-18 09:13:00,52.0,47.8,29.73,South,172,5.0,7.0,86,0.00,,,0.03,meteohub,2013-09-18 15:13:00,
2013-09-18 09:18:00,52.3,47.7,29.73,South,188,1.0,7.0,84,0.00,,,0.03,meteohub,2013-09-18 15:18:00,
2013-09-18 09:23:00,52.9,47.8,29.73,SE,134,2.0,6.0,83,0.00,,,0.03,meteohub,2013-09-18 15:23:00,
2013-09-18 09:29:00,53.2,47.8,29.72,SE,135,6.0,6.0,82,0.00,,,0.03,meteohub,2013-09-18 15:29:00,
2013-09-18 09:34:00,54.1,48.7,29.72,SE,134,4.0,6.0,82,0.00,,,0.03,meteohub,2013-09-18 15:34:00,
2013-09-18 09:39:00,54.9,47.5,29.72,SSE,158,6.0,7.0,76,0.00,,,0.03,meteohub,2013-09-18 15:39:00,
2013-09-18 09:44:00,55.6,47.5,29.73,East,98,7.0,10.0,74,0.00,,,0.03,meteohub,2013-09-18 15:44:00,
2013-09-18 09:49:00,56.5,48.0,29.72,SE,143,7.0,10.0,73,0.00,,,0.03,meteohub,2013-09-18 15:49:00,
2013-09-18 09:55:00,56.7,47.7,29.72,SE,145,6.0,10.0,72,0.00,,,0.03,meteohub,2013-09-18 15:55:00,
2013-09-18 10:00:00,57.2,48.2,29.72,South,187,4.0,11.0,72,0.00,,,0.03,meteohub,2013-09-18 16:00:00,
2013-09-18 10:01:00,57.6,48.6,29.72,SE,124,3.0,12.0,72,0.00,,,0.03,meteohub,2013-09-18 16:01:00,
2013-09-18 10:06:00,58.8,49.5,29.72,SSE,155,3.0,13.0,71,0.00,,,0.03,meteohub,2013-09-18 16:06:00,
2013-09-18 10:11:00,58.8,47.5,29.72,SE,141,7.0,13.0,66,0.00,,,0.03,meteohub,2013-09-18 16:11:00,
2013-09-18 10:16:00,58.3,47.8,29.71,SSE,164,6.0,13.0,68,0.00,,,0.03,meteohub,2013-09-18 16:16:00,
2013-09-18 10:21:00,57.9,46.9,29.71,SE,139,4.0,13.0,67,0.00,,,0.03,meteohub,2013-09-18 16:21:00,
2013-09-18 10:26:00,58.3,47.8,29.71,SSE,160,5.0,13.0,68,0.00,,,0.03,meteohub,2013-09-18 16:26:00,
2013-09-18 10:31:00,58.6,47.7,29.71,SE,141,1.0,13.0,67,0.00,,,0.03,meteohub,2013-09-18 16:31:00,
2013-09-18 10:37:00,59.2,48.2,29.70,SSE,164,3.0,11.0,67,0.00,,,0.03,meteohub,2013-09-18 16:37:00,
2013-09-18 10:42:00,59.9,47.7,29.70,SE,144,2.0,9.0,64,0.00,,,0.03,meteohub,2013-09-18 16:42:00,
2013-09-18 10:47:00,60.4,47.8,29.70,SW,217,3.0,8.0,63,0.00,,,0.03,meteohub,2013-09-18 16:47:00,
2013-09-18 10:52:00,60.4,47.8,29.70,ESE,114,2.0,10.0,63,0.00,,,0.03,meteohub,2013-09-18 16:52:00,
2013-09-18 10:58:00,60.4,47.8,29.70,East,99,4.0,12.0,63,0.00,,,0.03,meteohub,2013-09-18 16:58:00,
2013-09-18 11:03:00,60.4,47.3,29.70,SE,142,6.0,12.0,62,0.00,,,0.03,meteohub,2013-09-18 17:03:00,
2013-09-18 11:08:00,60.4,47.8,29.69,SSE,157,5.0,12.0,63,0.00,,,0.03,meteohub,2013-09-18 17:08:00,
2013-09-18 11:13:00,60.4,48.2,29.69,SE,124,8.0,16.0,64,0.00,,,0.03,meteohub,2013-09-18 17:13:00,
2013-09-18 11:18:00,61.0,47.8,29.69,SSW,197,6.0,16.0,62,0.00,,,0.03,meteohub,2013-09-18 17:18:00,
2013-09-18 11:24:00,61.2,47.7,29.69,SSE,160,8.0,16.0,61,0.00,,,0.03,meteohub,2013-09-18 17:24:00,
2013-09-18 11:29:00,61.0,47.8,29.69,ESE,115,6.0,13.0,62,0.00,,,0.03,meteohub,2013-09-18 17:29:00,
2013-09-18 11:34:00,60.8,47.3,29.69,SSE,165,6.0,13.0,61,0.00,,,0.03,meteohub,2013-09-18 17:34:00,
2013-09-18 11:39:00,61.0,47.8,29.69,SE,133,10.0,18.0,62,0.00,,,0.03,meteohub,2013-09-18 17:39:00,
2013-09-18 11:44:00,61.2,47.7,29.69,ESE,113,9.0,18.0,61,0.00,,,0.03,meteohub,2013-09-18 17:44:00,
2013-09-18 11:50:00,61.7,47.7,29.69,SSE,168,6.0,18.0,60,0.00,,,0.03,meteohub,2013-09-18 17:50:00,
2013-09-18 11:55:00,61.5,47.5,29.69,SE,127,10.0,14.0,60,0.00,,,0.03,meteohub,2013-09-18 17:55:00,
2013-09-18 12:00:00,62.1,48.0,29.69,SSE,159,10.0,13.0,60,0.00,,,0.03,meteohub,2013-09-18 18:00:00,
2013-09-18 12:05:00,62.1,47.5,29.69,South,179,9.0,14.0,59,0.00,,,0.03,meteohub,2013-09-18 18:05:00,
2013-09-18 12:10:00,62.2,47.3,29.69,ESE,102,5.0,14.0,58,0.00,,,0.03,meteohub,2013-09-18 18:10:00,
2013-09-18 12:15:00,62.6,47.7,29.68,South,173,9.0,15.0,58,0.00,,,0.03,meteohub,2013-09-18 18:15:00,
2013-09-18 12:20:00,62.2,46.8,29.68,South,170,4.0,16.0,57,0.00,,,0.03,meteohub,2013-09-18 18:20:00,
2013-09-18 12:26:00,62.4,47.8,29.67,South,173,11.0,19.0,59,0.00,,,0.03,meteohub,2013-09-18 18:26:00,
2013-09-18 12:31:00,62.6,48.0,29.67,SW,233,10.0,19.0,59,0.00,,,0.03,meteohub,2013-09-18 18:31:00,
2013-09-18 12:36:00,62.4,47.8,29.66,SE,141,13.0,24.0,59,0.00,,,0.03,meteohub,2013-09-18 18:36:00,
2013-09-18 12:41:00,63.0,47.5,29.66,SE,146,16.0,24.0,57,0.00,,,0.03,meteohub,2013-09-18 18:41:00,
2013-09-18 12:47:00,63.3,48.4,29.65,SE,135,14.0,24.0,58,0.00,,,0.03,meteohub,2013-09-18 18:47:00,
2013-09-18 12:52:00,63.3,47.3,29.65,SSE,155,23.0,23.0,56,0.00,,,0.03,meteohub,2013-09-18 18:52:00,
2013-09-18 12:57:00,63.5,47.1,29.65,SSE,164,15.0,23.0,55,0.00,,,0.03,meteohub,2013-09-18 18:57:00,
2013-09-18 13:02:00,63.9,46.9,29.65,ESE,114,9.0,24.0,54,0.00,,,0.03,meteohub,2013-09-18 19:02:00,
2013-09-18 13:07:00,64.2,46.2,29.65,SSE,155,8.0,24.0,52,0.00,,,0.03,meteohub,2013-09-18 19:07:00,
2013-09-18 13:12:00,64.6,46.0,29.64,SE,141,13.0,22.0,51,0.00,,,0.03,meteohub,2013-09-18 19:12:00,
2013-09-18 13:17:00,64.9,45.9,29.64,SE,137,4.0,21.0,50,0.00,,,0.03,meteohub,2013-09-18 19:17:00,
2013-09-18 13:22:00,65.1,46.6,29.63,SE,134,21.0,21.0,51,0.00,,,0.03,meteohub,2013-09-18 19:22:00,
2013-09-18 13:27:00,65.1,46.6,29.63,SE,124,15.0,25.0,51,0.00,,,0.03,meteohub,2013-09-18 19:27:00,
2013-09-18 13:32:00,64.8,46.2,29.63,SE,139,23.0,25.0,51,0.00,,,0.03,meteohub,2013-09-18 19:32:00,
2013-09-18 13:37:00,65.1,47.1,29.63,SE,132,16.0,26.0,52,0.00,,,0.03,meteohub,2013-09-18 19:37:00,
2013-09-18 13:42:00,65.1,47.1,29.63,SE,143,21.0,26.0,52,0.00,,,0.03,meteohub,2013-09-18 19:42:00,
2013-09-18 13:48:00,65.1,47.1,29.63,SE,136,20.0,30.0,52,0.00,,,0.03,meteohub,2013-09-18 19:48:00,
2013-09-18 13:53:00,65.1,46.6,29.62,SSE,162,18.0,30.0,51,0.00,,,0.03,meteohub,2013-09-18 19:53:00,
2013-09-18 13:58:00,65.5,46.9,29.63,SE,139,16.0,30.0,51,0.00,,,0.03,meteohub,2013-09-18 19:58:00,
2013-09-18 14:03:00,65.7,46.6,29.62,SE,134,12.0,26.0,50,0.00,,,0.03,meteohub,2013-09-18 20:03:00,
2013-09-18 14:09:00,65.7,47.1,29.62,SSE,149,14.0,25.0,51,0.00,,,0.03,meteohub,2013-09-18 20:09:00,
2013-09-18 14:14:00,65.8,47.1,29.61,SE,125,10.0,24.0,51,0.00,,,0.03,meteohub,2013-09-18 20:14:00,
2013-09-18 14:20:00,66.6,47.3,29.62,ESE,113,13.0,26.0,50,0.00,,,0.03,meteohub,2013-09-18 20:20:00,
2013-09-18 14:25:00,66.0,45.7,29.61,SE,124,7.0,26.0,48,0.00,,,0.03,meteohub,2013-09-18 20:25:00,
2013-09-18 14:31:00,65.1,46.0,29.61,SSE,166,10.0,23.0,50,0.00,,,0.03,meteohub,2013-09-18 20:31:00,
2013-09-18 14:36:00,65.1,45.0,29.60,South,174,10.0,23.0,48,0.00,,,0.03,meteohub,2013-09-18 20:36:00,
2013-09-18 14:41:00,64.6,45.0,29.61,South,188,13.0,23.0,49,0.00,,,0.03,meteohub,2013-09-18 20:41:00,
2013-09-18 14:46:00,64.2,44.1,29.62,NW,322,6.0,23.0,48,0.00,,,0.03,meteohub,2013-09-18 20:46:00,
2013-09-18 14:51:00,63.9,44.8,29.65,WNW,297,6.0,22.0,50,0.00,,,0.03,meteohub,2013-09-18 20:51:00,
2013-09-18 14:57:00,61.9,41.4,29.65,NNW,343,8.0,18.0,47,0.00,,,0.03,meteohub,2013-09-18 20:57:00,
2013-09-18 15:02:00,58.5,43.3,29.65,WSW,256,5.0,20.0,57,0.00,,,0.03,meteohub,2013-09-18 21:02:00,
2013-09-18 15:07:00,56.7,41.5,29.65,SSE,165,19.0,20.0,57,0.00,,,0.03,meteohub,2013-09-18 21:07:00,
2013-09-18 15:13:00,55.2,45.1,29.62,SSE,156,18.0,23.0,69,0.05,,,0.08,meteohub,2013-09-18 21:13:00,
2013-09-18 15:18:00,54.9,47.8,29.62,WSW,246,6.0,23.0,77,0.10,,,0.13,meteohub,2013-09-18 21:18:00,
2013-09-18 15:23:00,55.4,49.3,29.64,NNW,344,2.0,21.0,80,0.10,,,0.13,meteohub,2013-09-18 21:23:00,
2013-09-18 15:28:00,56.7,49.8,29.65,East,89,5.0,21.0,78,0.10,,,0.13,meteohub,2013-09-18 21:28:00,
2013-09-18 15:33:00,56.5,48.7,29.65,NE,50,10.0,17.0,75,0.10,,,0.13,meteohub,2013-09-18 21:33:00,
2013-09-18 15:38:00,55.4,48.0,29.65,East,91,4.0,15.0,76,0.10,,,0.13,meteohub,2013-09-18 21:38:00,
2013-09-18 15:44:00,54.9,49.1,29.65,NNE,27,4.0,15.0,81,0.10,,,0.13,meteohub,2013-09-18 21:44:00,
2013-09-18 15:49:00,54.7,48.4,29.64,NNW,343,2.0,15.0,79,0.10,,,0.13,meteohub,2013-09-18 21:49:00,
2013-09-18 15:55:00,55.2,47.5,29.64,ENE,65,1.0,6.0,75,0.10,,,0.13,meteohub,2013-09-18 21:55:00,
2013-09-18 16:01:00,55.8,47.3,29.65,NNW,332,3.0,5.0,73,0.10,,,0.13,meteohub,2013-09-18 22:01:00,
2013-09-18 16:06:00,56.3,46.9,29.66,NW,321,3.0,7.0,71,0.08,,,0.13,meteohub,2013-09-18 22:06:00,
2013-09-18 16:11:00,57.0,48.4,29.66,NW,318,0.0,7.0,73,0.01,,,0.13,meteohub,2013-09-18 22:11:00,
2013-09-18 16:16:00,57.4,47.7,29.66,NNW,330,5.0,7.0,70,0.00,,,0.13,meteohub,2013-09-18 22:16:00,
2013-09-18 16:21:00,57.2,48.6,29.65,NNE,22,4.0,6.0,73,0.00,,,0.13,meteohub,2013-09-18 22:21:00,
2013-09-18 16:27:00,57.0,47.7,29.66,NW,326,4.0,7.0,71,0.00,,,0.13,meteohub,2013-09-18 22:27:00,
2013-09-18 16:32:00,57.0,46.9,29.66,NNW,328,3.0,7.0,69,0.00,,,0.13,meteohub,2013-09-18 22:32:00,
2013-09-18 16:37:00,57.0,47.7,29.67,NW,315,3.0,7.0,71,0.00,,,0.13,meteohub,2013-09-18 22:37:00,
2013-09-18 16:42:00,57.4,46.9,29.66,NNW,332,4.0,7.0,68,0.00,,,0.13,meteohub,2013-09-18 22:42:00,
2013-09-18 16:47:00,57.4,46.6,29.66,NNW,329,4.0,7.0,67,0.00,,,0.13,meteohub,2013-09-18 22:47:00,
2013-09-18 16:52:00,57.6,47.1,29.65,NW,326,2.0,7.0,68,0.00,,,0.13,meteohub,2013-09-18 22:52:00,
2013-09-18 16:57:00,57.7,46.4,29.66,NW,322,3.0,7.0,66,0.00,,,0.13,meteohub,2013-09-18 22:57:00,
2013-09-18 17:02:00,57.7,45.7,29.66,NNW,347,4.0,8.0,64,0.00,,,0.13,meteohub,2013-09-18 23:02:00,
2013-09-18 17:07:00,57.7,46.0,29.67,NNW,336,9.0,9.0,65,0.00,,,0.13,meteohub,2013-09-18 23:07:00,
2013-09-18 17:12:00,57.6,45.5,29.67,NNW,333,12.0,13.0,64,0.00,,,0.13,meteohub,2013-09-18 23:12:00,
2013-09-18 17:17:00,57.4,45.0,29.68,NNW,330,5.0,13.0,63,0.00,,,0.13,meteohub,2013-09-18 23:17:00,
2013-09-18 17:22:00,57.0,44.6,29.68,NNW,330,10.0,13.0,63,0.00,,,0.13,meteohub,2013-09-18 23:22:00,
2013-09-18 17:28:00,56.7,43.7,29.68,NW,312,7.0,16.0,62,0.00,,,0.13,meteohub,2013-09-18 23:28:00,
2013-09-18 17:33:00,55.9,44.8,29.69,NNW,336,8.0,17.0,66,0.00,,,0.13,meteohub,2013-09-18 23:33:00,
2013-09-18 17:38:00,55.8,44.2,29.69,NW,318,11.0,17.0,65,0.00,,,0.13,meteohub,2013-09-18 23:38:00,
2013-09-18 17:43:00,55.4,44.6,29.69,NNW,336,6.0,17.0,67,0.00,,,0.13,meteohub,2013-09-18 23:43:00,
2013-09-18 17:49:00,55.0,45.5,29.68,NNW,329,6.0,14.0,70,0.00,,,0.13,meteohub,2013-09-18 23:49:00,
2013-09-18 17:54:00,54.7,45.9,29.68,NNW,343,8.0,14.0,72,0.00,,,0.13,meteohub,2013-09-18 23:54:00,
2013-09-18 17:59:00,54.3,46.2,29.69,NW,325,7.0,14.0,74,0.00,,,0.13,meteohub,2013-09-18 23:59:00,
2013-09-18 18:06:00,54.0,46.2,29.69,West,280,8.0,14.0,75,0.00,,,0.00,meteohub,2013-09-19 00:06:00,
2013-09-18 18:11:00,54.3,44.4,29.70,NNW,329,11.0,14.0,69,0.00,,,0.00,meteohub,2013-09-19 00:11:00,
2013-09-18 18:16:00,54.3,45.1,29.70,NNW,330,8.0,17.0,71,0.00,,,0.00,meteohub,2013-09-19 00:16:00,
2013-09-18 18:21:00,54.3,45.9,29.70,NW,311,2.0,17.0,73,0.00,,,0.00,meteohub,2013-09-19 00:21:00,
2013-09-18 18:26:00,54.1,45.7,29.71,NNW,344,2.0,15.0,73,0.00,,,0.00,meteohub,2013-09-19 00:26:00,
2013-09-18 18:31:00,54.3,44.1,29.71,NW,318,5.0,8.0,68,0.00,,,0.00,meteohub,2013-09-19 00:31:00,
2013-09-18 18:36:00,53.4,43.9,29.72,NW,321,11.0,12.0,70,0.00,,,0.00,meteohub,2013-09-19 00:36:00,
2013-09-18 18:41:00,52.5,43.7,29.72,NNW,340,6.0,18.0,72,0.00,,,0.00,meteohub,2013-09-19 00:41:00,
2013-09-18 18:47:00,52.2,44.1,29.74,WSW,241,3.0,18.0,74,0.00,,,0.00,meteohub,2013-09-19 00:47:00,
2013-09-18 18:52:00,52.0,43.5,29.73,East,82,5.0,18.0,73,0.00,,,0.00,meteohub,2013-09-19 00:52:00,
2013-09-18 18:57:00,51.8,43.3,29.74,ENE,64,4.0,14.0,73,0.00,,,0.00,meteohub,2013-09-19 00:57:00,
2013-09-18 19:02:00,51.6,43.3,29.73,NNE,20,6.0,9.0,73,0.00,,,0.00,meteohub,2013-09-19 01:02:00,
2013-09-18 19:07:00,51.6,43.3,29.72,NNE,23,6.0,13.0,73,0.00,,,0.00,meteohub,2013-09-19 01:07:00,
2013-09-18 19:13:00,51.3,43.5,29.73,NNW,335,5.0,13.0,75,0.00,,,0.00,meteohub,2013-09-19 01:13:00,
2013-09-18 19:18:00,50.7,43.2,29.73,NNW,342,6.0,13.0,75,0.00,,,0.00,meteohub,2013-09-19 01:18:00,
2013-09-18 19:23:00,50.5,43.0,29.74,NW,323,6.0,10.0,75,0.00,,,0.00,meteohub,2013-09-19 01:23:00,
2013-09-18 19:29:00,50.5,43.0,29.75,NNW,330,7.0,10.0,75,0.00,,,0.00,meteohub,2013-09-19 01:29:00,
2013-09-18 19:34:00,50.5,42.6,29.75,NW,319,4.0,10.0,74,0.00,,,0.00,meteohub,2013-09-19 01:34:00,
2013-09-18 19:39:00,50.5,42.6,29.75,NW,326,5.0,10.0,74,0.00,,,0.00,meteohub,2013-09-19 01:39:00,
2013-09-18 19:44:00,50.5,42.6,29.75,NNW,328,3.0,10.0,74,0.00,,,0.00,meteohub,2013-09-19 01:44:00,
2013-09-18 19:49:00,50.5,42.3,29.75,NNW,329,2.0,7.0,73,0.00,,,0.00,meteohub,2013-09-19 01:49:00,
2013-09-18 19:54:00,50.5,42.6,29.75,NNW,328,3.0,7.0,74,0.00,,,0.00,meteohub,2013-09-19 01:54:00,
2013-09-18 20:00:00,50.5,41.9,29.75,NNW,335,3.0,5.0,72,0.00,,,0.00,meteohub,2013-09-19 02:00:00,
2013-09-18 20:05:00,50.4,42.1,29.75,NW,322,4.0,5.0,73,0.00,,,0.00,meteohub,2013-09-19 02:05:00,
2013-09-18 20:10:00,50.4,42.1,29.76,NNW,330,5.0,6.0,73,0.00,,,0.00,meteohub,2013-09-19 02:10:00,
2013-09-18 20:15:00,50.4,42.1,29.76,NNW,328,6.0,8.0,73,0.00,,,0.00,meteohub,2013-09-19 02:15:00,
2013-09-18 20:20:00,50.4,41.7,29.76,NNW,335,6.0,10.0,72,0.00,,,0.00,meteohub,2013-09-19 02:20:00,
2013-09-18 20:25:00,50.2,41.9,29.76,NW,304,3.0,10.0,73,0.00,,,0.00,meteohub,2013-09-19 02:25:00,
2013-09-18 20:30:00,50.2,42.3,29.77,NW,326,5.0,9.0,74,0.00,,,0.00,meteohub,2013-09-19 02:30:00,
2013-09-18 20:35:00,50.0,42.1,29.77,WNW,297,2.0,6.0,74,0.00,,,0.00,meteohub,2013-09-19 02:35:00,
2013-09-18 20:41:00,50.2,42.3,29.77,NW,307,2.0,6.0,74,0.00,,,0.00,meteohub,2013-09-19 02:41:00,
2013-09-18 20:46:00,50.2,42.3,29.77,NW,304,1.0,5.0,74,0.00,,,0.00,meteohub,2013-09-19 02:46:00,
2013-09-18 20:51:00,50.0,42.1,29.77,NW,312,2.0,5.0,74,0.00,,,0.00,meteohub,2013-09-19 02:51:00,
2013-09-18 20:56:00,49.8,42.3,29.77,NW,306,2.0,5.0,75,0.00,,,0.00,meteohub,2013-09-19 02:56:00,
2013-09-18 21:01:00,49.6,42.4,29.78,WNW,302,2.0,4.0,76,0.00,,,0.00,meteohub,2013-09-19 03:01:00,
2013-09-18 21:06:00,49.6,42.4,29.78,NW,304,3.0,4.0,76,0.00,,,0.00,meteohub,2013-09-19 03:06:00,
2013-09-18 21:12:00,50.2,42.6,29.78,West,263,2.0,6.0,75,0.00,,,0.00,meteohub,2013-09-19 03:12:00,
2013-09-18 21:17:00,50.4,42.8,29.79,WSW,239,3.0,6.0,75,0.00,,,0.00,meteohub,2013-09-19 03:17:00,
2013-09-18 21:22:00,50.4,43.2,29.78,SSE,163,5.0,6.0,76,0.00,,,0.00,meteohub,2013-09-19 03:22:00,
2013-09-18 21:27:00,49.8,43.0,29.78,South,172,6.0,6.0,77,0.00,,,0.00,meteohub,2013-09-19 03:27:00,
2013-09-18 21:32:00,49.6,43.3,29.76,SE,137,3.0,7.0,79,0.00,,,0.00,meteohub,2013-09-19 03:32:00,
2013-09-18 21:37:00,49.3,43.3,29.76,SSE,155,5.0,8.0,80,0.00,,,0.00,meteohub,2013-09-19 03:37:00,
2013-09-18 21:43:00,48.7,43.5,29.77,SW,235,0.0,8.0,82,0.00,,,0.00,meteohub,2013-09-19 03:43:00,
2013-09-18 21:48:00,48.6,43.3,29.77,South,172,0.0,8.0,82,0.00,,,0.00,meteohub,2013-09-19 03:48:00,
2013-09-18 21:53:00,48.6,42.6,29.76,SSE,159,3.0,7.0,80,0.00,,,0.00,meteohub,2013-09-19 03:53:00,
2013-09-18 21:58:00,48.6,43.0,29.76,SE,132,0.0,6.0,81,0.00,,,0.00,meteohub,2013-09-19 03:58:00,
2013-09-18 22:01:00,48.4,42.8,29.76,SE,132,0.0,6.0,81,0.00,,,0.00,meteohub,2013-09-19 04:01:00,
2013-09-18 22:02:00,48.4,42.8,29.76,NE,52,1.0,6.0,81,0.00,,,0.00,meteohub,2013-09-19 04:02:00,
2013-09-18 22:03:00,48.4,42.8,29.75,NE,35,2.0,6.0,81,0.00,,,0.00,meteohub,2013-09-19 04:03:00,
2013-09-18 22:05:00,48.2,43.0,29.75,NNE,19,1.0,4.0,82,0.00,,,0.00,meteohub,2013-09-19 04:05:00,
2013-09-18 22:07:00,48.0,42.8,29.75,NW,316,1.0,4.0,82,0.00,,,0.00,meteohub,2013-09-19 04:07:00,
2013-09-18 22:08:00,48.0,43.2,29.75,NNW,330,0.0,4.0,83,0.00,,,0.00,meteohub,2013-09-19 04:08:00,
2013-09-18 22:13:00,47.7,42.8,29.75,NNE,25,0.0,2.0,83,0.00,,,0.00,meteohub,2013-09-19 04:13:00,
2013-09-18 22:18:00,47.7,42.8,29.75,NNE,25,0.0,4.0,83,0.00,,,0.00,meteohub,2013-09-19 04:18:00,
2013-09-18 22:23:00,47.7,42.8,29.75,ESE,115,4.0,4.0,83,0.00,,,0.00,meteohub,2013-09-19 04:23:00,
2013-09-18 22:29:00,48.0,43.2,29.76,SE,133,4.0,4.0,83,0.00,,,0.00,meteohub,2013-09-19 04:29:00,
2013-09-18 22:34:00,48.6,43.3,29.76,SE,125,0.0,6.0,82,0.00,,,0.00,meteohub,2013-09-19 04:34:00,
2013-09-18 22:39:00,48.9,43.0,29.77,WNW,285,1.0,6.0,80,0.00,,,0.00,meteohub,2013-09-19 04:39:00,
2013-09-18 22:44:00,49.3,43.3,29.77,West,280,1.0,6.0,80,0.00,,,0.00,meteohub,2013-09-19 04:44:00,
2013-09-18 22:49:00,49.3,43.0,29.76,WNW,285,4.0,5.0,79,0.00,,,0.00,meteohub,2013-09-19 04:49:00,
2013-09-18 22:54:00,48.4,42.8,29.77,WNW,291,1.0,3.0,81,0.00,,,0.00,meteohub,2013-09-19 04:54:00,
2013-09-18 22:59:00,47.8,43.0,29.78,West,274,2.0,5.0,83,0.00,,,0.00,meteohub,2013-09-19 04:59:00,
2013-09-18 23:04:00,47.7,42.8,29.78,West,278,2.0,5.0,83,0.00,,,0.00,meteohub,2013-09-19 05:04:00,
2013-09-18 23:09:00,47.3,42.4,29.78,West,281,1.0,5.0,83,0.00,,,0.00,meteohub,2013-09-19 05:09:00,
2013-09-18 23:14:00,47.5,42.6,29.79,West,259,4.0,4.0,83,0.00,,,0.00,meteohub,2013-09-19 05:14:00,
2013-09-18 23:19:00,47.7,42.4,29.79,West,281,3.0,5.0,82,0.00,,,0.00,meteohub,2013-09-19 05:19:00,
2013-09-18 23:25:00,47.8,42.6,29.79,West,264,0.0,5.0,82,0.00,,,0.00,meteohub,2013-09-19 05:25:00,
2013-09-18 23:30:00,48.0,42.4,29.79,West,281,0.0,5.0,81,0.00,,,0.00,meteohub,2013-09-19 05:30:00,
2013-09-18 23:35:00,48.0,42.4,29.78,East,92,1.0,5.0,81,0.00,,,0.00,meteohub,2013-09-19 05:35:00,
2013-09-18 23:40:00,48.4,42.8,29.79,East,79,2.0,2.0,81,0.00,,,0.00,meteohub,2013-09-19 05:40:00,
2013-09-18 23:45:00,47.8,43.0,29.79,East,80,0.0,2.0,83,0.00,,,0.00,meteohub,2013-09-19 05:45:00,
2013-09-18 23:50:00,47.3,42.8,29.79,SE,139,2.0,5.0,84,0.00,,,0.00,meteohub,2013-09-19 05:50:00,
2013-09-18 23:55:00,47.3,42.8,29.79,East,84,1.0,5.0,84,0.00,,,0.00,meteohub,2013-09-19 05:55:00,